Time;durP1;ratioP1;P1;durP2;ratioP2;P2;SDS_P1;SDS_P2;PMS_P1;PMS_P2;Temp;Humidity;BMP_temperature;BMP_pressure;BME280_temperature;BME280_humidity;BME280_pressure;Samples;Min_cycle;Max_cycle;Signal;HPM_P1;HPM_P2
2022/06/21 00:00:51;;;;;;;;;8.50;8.25;;;;;21.58;39.43;100858.75;5021813;28;45363;-65
2022/06/21 00:03:22;;;;;;;;;11.25;9.75;;;;;21.56;39.55;100858.84;5021614;28;45323;-65
2022/06/21 00:05:50;;;;;;;;;9.25;9.25;;;;;21.54;40.03;100858.03;5021726;28;47225;-65
2022/06/21 00:08:19;;;;;;;;;9.00;7.50;;;;;21.50;40.11;100853.81;5021415;28;45340;-65
2022/06/21 00:10:45;;;;;;;;;10.25;9.00;;;;;21.51;40.05;100852.00;5021861;28;45332;-65
2022/06/21 00:13:23;;;;;;;;;8.25;8.00;;;;;21.49;39.68;100846.75;5021587;28;45468;-66
2022/06/21 00:15:51;;;;;;;;;9.25;8.25;;;;;21.47;39.65;100839.75;5021447;28;46107;-65
2022/06/21 00:18:20;;;;;;;;;8.00;7.25;;;;;21.45;39.70;100834.53;5021439;28;45259;-65
2022/06/21 00:20:46;;;;;;;;;10.00;10.00;;;;;21.42;39.95;100827.53;5021633;28;45235;-66
2022/06/21 00:23:16;;;;;;;;;10.50;10.50;;;;;21.40;39.76;100834.78;5020871;28;45407;-65
2022/06/21 00:25:42;;;;;;;;;9.75;9.25;;;;;21.37;40.38;100826.94;5019417;28;46919;-65
2022/06/21 00:28:08;;;;;;;;;12.25;9.25;;;;;21.35;40.41;100822.66;5021131;28;45201;-65
2022/06/21 00:30:33;;;;;;;;;10.00;9.00;;;;;21.32;39.93;100830.81;5021526;28;45336;-65
2022/06/21 00:32:59;;;;;;;;;11.25;10.75;;;;;21.29;40.02;100826.53;5036267;28;45261;-65
2022/06/21 00:35:25;;;;;;;;;8.75;8.25;;;;;21.28;40.16;100846.16;5021349;28;46219;-65
2022/06/21 00:37:52;;;;;;;;;9.00;8.75;;;;;21.25;40.69;100846.38;5021124;28;45208;-64
2022/06/21 00:40:30;;;;;;;;;10.25;9.00;;;;;21.23;40.24;100842.91;5021166;28;45300;-64
2022/06/21 00:43:01;;;;;;;;;8.00;8.00;;;;;21.22;40.32;100830.50;5021239;28;45343;-64
2022/06/21 00:45:53;;;;;;;;;12.00;9.00;;;;;21.20;40.42;100835.09;5020737;28;45517;-65
2022/06/21 00:48:25;;;;;;;;;9.25;9.00;;;;;21.17;40.66;100835.25;5018984;28;45178;-64
2022/06/21 00:51:06;;;;;;;;;11.00;8.50;;;;;21.16;40.62;100830.88;5020981;28;45294;-64
2022/06/21 00:53:43;;;;;;;;;8.75;8.75;;;;;21.14;40.26;100830.09;5020620;28;45603;-65
2022/06/21 00:56:14;;;;;;;;;8.75;8.75;;;;;21.12;40.81;100835.53;5015282;28;46178;-65
2022/06/21 00:58:39;;;;;;;;;10.00;9.00;;;;;21.11;40.75;100842.66;5016153;28;45308;-65
2022/06/21 01:01:14;;;;;;;;;8.50;8.50;;;;;21.08;40.65;100833.97;5020826;28;45186;-64
2022/06/21 01:03:51;;;;;;;;;11.50;9.50;;;;;21.08;40.88;100842.84;5020792;28;45174;-65
2022/06/21 01:06:31;;;;;;;;;12.50;10.25;;;;;21.05;40.53;100845.69;5020557;28;46154;-64
2022/06/21 01:09:10;;;;;;;;;9.25;9.25;;;;;21.04;40.56;100851.13;5019318;28;45317;-65
2022/06/21 01:11:42;;;;;;;;;11.75;9.50;;;;;21.01;40.74;100848.63;5020749;28;45186;-64
2022/06/21 01:14:09;;;;;;;;;9.25;9.25;;;;;20.98;41.05;100844.31;5020779;28;45176;-64
2022/06/21 01:16:36;;;;;;;;;10.50;10.50;;;;;20.97;40.97;100841.72;5020297;28;45721;-65
2022/06/21 01:19:07;;;;;;;;;12.00;10.25;;;;;20.97;41.45;100844.38;5020550;28;45168;-64
2022/06/21 01:21:36;;;;;;;;;10.00;10.00;;;;;20.92;40.59;100858.88;5020535;28;45250;-64
2022/06/21 01:24:25;;;;;;;;;11.50;11.50;;;;;20.91;41.21;100850.94;5020273;28;45445;-64
2022/06/21 01:26:57;;;;;;;;;12.00;11.00;;;;;20.92;41.38;100844.66;5035632;28;47148;-65
2022/06/21 01:29:26;;;;;;;;;7.50;7.50;;;;;20.90;41.39;100839.38;5020274;28;45396;-65
2022/06/21 01:31:55;;;;;;;;;8.75;8.75;;;;;20.90;41.05;100838.53;5020455;28;45407;-65
2022/06/21 01:34:22;;;;;;;;;11.00;10.25;;;;;20.88;41.36;100856.44;5019670;28;45498;-64
2022/06/21 01:37:00;;;;;;;;;11.00;10.50;;;;;20.86;41.04;100861.88;5035452;28;47078;-65
2022/06/21 01:39:55;;;;;;;;;10.50;9.75;;;;;20.87;41.47;100873.44;5020070;28;45517;-64
2022/06/21 01:42:27;;;;;;;;;8.00;8.00;;;;;20.88;41.15;100875.13;5015195;28;45423;-64
2022/06/21 01:44:57;;;;;;;;;11.00;9.50;;;;;20.86;41.55;100885.06;5020115;28;45328;-64
2022/06/21 01:47:27;;;;;;;;;12.25;11.00;;;;;20.86;41.55;100887.72;5019892;28;46199;-64
2022/06/21 01:49:58;;;;;;;;;11.25;10.75;;;;;20.86;41.81;100901.94;5020184;28;45392;-64
2022/06/21 01:52:27;;;;;;;;;11.25;10.25;;;;;20.86;41.74;100909.09;5020267;28;45164;-64
2022/06/21 01:54:59;;;;;;;;;11.75;11.00;;;;;20.85;41.47;100934.94;5019864;28;45466;-64
2022/06/21 01:57:26;;;;;;;;;14.00;11.00;;;;;20.87;41.66;100946.41;5009869;28;45528;-64
2022/06/21 01:59:52;;;;;;;;;11.75;10.00;;;;;20.88;41.29;100956.16;5018757;28;45423;-64
2022/06/21 02:02:23;;;;;;;;;10.75;10.75;;;;;20.89;41.99;100951.66;5019738;28;45300;-64
2022/06/21 02:05:06;;;;;;;;;12.25;11.00;;;;;20.88;41.80;100947.25;5019809;28;45248;-64
2022/06/21 02:07:38;;;;;;;;;15.00;13.50;;;;;20.88;41.79;100949.91;5019437;28;45344;-64
2022/06/21 02:10:10;;;;;;;;;9.75;9.00;;;;;20.88;41.95;100949.91;5019551;28;45314;-64
2022/06/21 02:12:41;;;;;;;;;11.00;8.75;;;;;20.88;41.42;100941.91;5019949;28;45227;-64
2022/06/21 02:15:17;;;;;;;;;10.00;9.25;;;;;20.88;41.95;100931.22;5018390;28;45304;-64
2022/06/21 02:17:45;;;;;;;;;10.00;10.00;;;;;20.89;42.07;100925.81;5019506;28;46523;-64
2022/06/21 02:20:21;;;;;;;;;13.00;12.00;;;;;20.91;41.31;100899.03;5019998;28;45188;-64
2022/06/21 02:22:47;;;;;;;;;14.00;13.00;;;;;20.91;41.54;100891.84;5019654;28;45245;-64
2022/06/21 02:25:20;;;;;;;;;11.50;11.50;;;;;20.90;41.68;100891.94;5019461;28;45516;-64
2022/06/21 02:27:46;;;;;;;;;11.50;11.00;;;;;20.92;42.01;100882.06;5019480;28;45251;-64
2022/06/21 02:30:21;;;;;;;;;8.75;7.50;;;;;20.91;41.74;100880.34;5019622;28;45299;-64
2022/06/21 02:32:49;;;;;;;;;11.75;10.00;;;;;20.93;41.77;100873.09;5019266;28;45442;-64
2022/06/21 02:35:24;;;;;;;;;9.50;8.25;;;;;20.93;41.43;100868.59;5019620;28;45348;-64
2022/06/21 02:37:53;;;;;;;;;9.00;9.00;;;;;20.93;41.70;100867.75;5018067;28;46452;-64
2022/06/21 02:40:23;;;;;;;;;9.50;9.50;;;;;20.94;42.15;100858.78;5019499;28;45205;-64
2022/06/21 02:42:51;;;;;;;;;12.50;10.25;;;;;20.94;42.33;100870.34;5019484;28;45391;-65
2022/06/21 02:45:25;;;;;;;;;11.50;11.50;;;;;20.95;42.13;100871.19;5019377;28;45245;-64
2022/06/21 02:47:53;;;;;;;;;12.50;12.00;;;;;20.94;41.81;100872.13;5020898;28;45474;-65
2022/06/21 02:50:36;;;;;;;;;9.50;9.50;;;;;20.93;41.86;100870.44;5022689;28;45303;-65
2022/06/21 02:53:11;;;;;;;;;12.00;12.00;;;;;20.96;42.45;100872.91;5022761;28;45493;-65
2022/06/21 02:55:53;;;;;;;;;12.50;10.50;;;;;20.98;41.90;100865.69;5021572;28;45308;-65
2022/06/21 02:58:24;;;;;;;;;14.75;13.00;;;;;20.98;41.96;100851.47;5015835;28;45341;-64
2022/06/21 03:00:51;;;;;;;;;13.75;13.25;;;;;20.96;42.45;100848.03;5037954;28;45266;-65
2022/06/21 03:03:21;;;;;;;;;9.75;9.75;;;;;20.97;42.46;100847.06;5022643;28;45390;-64
2022/06/21 03:05:50;;;;;;;;;15.75;10.75;;;;;20.96;42.70;100840.88;5022761;28;45481;-64
2022/06/21 03:08:17;;;;;;;;;13.75;13.50;;;;;20.96;42.05;100832.84;5022165;28;45817;-65
2022/06/21 03:10:47;;;;;;;;;13.00;12.50;;;;;20.95;42.24;100833.78;5022575;28;45395;-66
2022/06/21 03:13:21;;;;;;;;;11.25;11.25;;;;;20.94;42.47;100827.59;5022753;28;45260;-65
2022/06/21 03:15:52;;;;;;;;;13.00;11.25;;;;;20.92;42.75;100824.16;5021973;28;45228;-65
2022/06/21 03:18:24;;;;;;;;;12.75;12.75;;;;;20.91;42.25;100806.41;5021017;28;47057;-65
2022/06/21 03:20:51;;;;;;;;;13.00;13.00;;;;;20.90;42.42;100806.50;5022416;28;45348;-65
2022/06/21 03:23:18;;;;;;;;;12.50;12.50;;;;;20.87;42.45;100806.69;5021864;28;45498;-65
2022/06/21 03:25:59;;;;;;;;;15.25;15.25;;;;;20.83;42.81;100784.63;5022209;28;45471;-65
2022/06/21 03:28:35;;;;;;;;;12.00;12.00;;;;;20.82;42.84;100766.00;5022185;28;48174;-65
2022/06/21 03:31:19;;;;;;;;;12.25;12.25;;;;;20.82;42.61;100768.66;5020929;28;45461;-66
2022/06/21 03:33:48;;;;;;;;;14.75;13.00;;;;;20.80;43.05;100757.22;5022398;28;45548;-65
2022/06/21 03:36:17;;;;;;;;;8.00;8.00;;;;;20.77;42.59;100748.44;5022155;28;45289;-66
2022/06/21 03:38:49;;;;;;;;;14.25;13.00;;;;;20.73;43.13;100743.38;5021780;28;46128;-65
2022/06/21 03:44:07;;;;;;;;;14.00;13.50;;;;;20.70;43.31;100723.00;5022177;28;45464;-65
2022/06/21 03:46:41;;;;;;;;;11.25;11.25;;;;;20.67;42.82;100708.97;5021890;28;45497;-65
2022/06/21 03:49:45;;;;;;;;;12.75;12.00;;;;;20.66;43.04;100701.91;5021775;28;46771;-65
2022/06/21 03:52:41;;;;;;;;;12.75;12.75;;;;;20.58;43.41;100689.84;5000499;28;45537;-60
2022/06/21 03:55:41;;;;;;;;;15.00;15.00;;;;;20.56;43.47;100686.41;5021234;28;45374;-60
2022/06/21 03:58:15;;;;;;;;;12.25;12.25;;;;;20.55;43.06;100679.38;5020867;28;45391;-60
2022/06/21 04:01:05;;;;;;;;;14.75;13.00;;;;;20.53;43.13;100675.91;5021467;28;45343;-60
2022/06/21 04:03:40;;;;;;;;;14.00;14.00;;;;;20.51;43.25;100668.94;5021190;28;45248;-60
2022/06/21 04:06:11;;;;;;;;;17.25;15.25;;;;;20.48;43.69;100663.75;5021708;28;45347;-60
2022/06/21 04:08:46;;;;;;;;;13.50;13.00;;;;;20.45;43.34;100654.13;5021322;28;45236;-60
2022/06/21 04:11:20;;;;;;;;;13.75;13.75;;;;;20.41;43.55;100660.59;5020191;28;45298;-60
2022/06/21 04:14:05;;;;;;;;;16.00;14.50;;;;;20.42;43.44;100660.50;5021611;28;45422;-60
2022/06/21 04:16:41;;;;;;;;;14.50;13.50;;;;;20.39;43.96;100658.03;5021458;28;45442;-60
2022/06/21 04:19:11;;;;;;;;;15.50;15.50;;;;;20.35;43.67;100640.47;5021342;28;45372;-67
2022/06/21 04:21:55;;;;;;;;;16.25;14.75;;;;;20.35;43.77;100639.59;5021202;28;45526;-67
2022/06/21 04:24:37;;;;;;;;;13.50;12.75;;;;;20.29;43.70;100633.66;5021095;28;45266;-67
2022/06/21 04:27:18;;;;;;;;;16.00;15.25;;;;;20.29;44.33;100628.31;5021339;28;45332;-67
2022/06/21 04:30:23;;;;;;;;;16.50;14.75;;;;;20.26;44.11;100617.84;5036512;28;45340;-66
2022/06/21 04:33:10;;;;;;;;;16.00;16.00;;;;;20.21;44.38;100616.38;4979186;28;45492;-65
2022/06/21 04:35:41;;;;;;;;;14.00;13.25;;;;;20.19;44.19;100615.59;5013762;28;45273;-66
2022/06/21 04:38:31;;;;;;;;;14.25;14.25;;;;;20.18;44.05;100608.56;5021218;28;45233;-66
2022/06/21 04:41:05;;;;;;;;;15.25;12.50;;;;;20.16;44.60;100605.09;5021027;28;45552;-67
2022/06/21 04:43:43;;;;;;;;;16.00;14.75;;;;;20.12;44.66;100607.97;5021228;28;45374;-66
2022/06/21 04:46:12;;;;;;;;;14.50;14.50;;;;;20.10;44.30;100607.16;5020705;28;45367;-66
2022/06/21 04:48:48;;;;;;;;;15.25;13.75;;;;;20.07;44.78;100607.31;5020983;28;45383;-66
2022/06/21 04:51:50;;;;;;;;;16.50;14.25;;;;;20.05;44.71;100606.56;5021091;28;45265;-66
2022/06/21 04:54:37;;;;;;;;;15.00;14.25;;;;;20.03;44.72;100603.13;5020579;28;46287;-66
2022/06/21 04:57:16;;;;;;;;;15.75;14.00;;;;;20.01;44.86;100612.16;5025200;28;46529;-66
2022/06/21 04:59:47;;;;;;;;;13.25;13.25;;;;;19.97;44.70;100617.66;5019660;28;45456;-67
2022/06/21 05:02:27;;;;;;;;;17.00;16.50;;;;;19.94;45.19;100623.16;5020468;28;45223;-66
2022/06/21 05:05:20;;;;;;;;;20.50;18.50;;;;;19.91;45.12;100628.69;5020580;28;46222;-66
2022/06/21 05:07:54;;;;;;;;;16.25;15.75;;;;;19.88;45.36;100646.66;5015104;28;45332;-67
2022/06/21 05:10:25;;;;;;;;;15.25;15.25;;;;;19.84;45.57;100653.09;5018372;28;45341;-66
2022/06/21 05:12:53;;;;;;;;;17.00;16.00;;;;;19.75;45.30;100665.94;5020757;28;45248;-66
2022/06/21 05:15:28;;;;;;;;;17.50;16.75;;;;;19.69;45.60;100676.06;5020340;28;46507;-66
2022/06/21 05:18:06;;;;;;;;;16.00;13.75;;;;;19.59;45.72;100668.56;5019227;28;45403;-66
2022/06/21 05:20:35;;;;;;;;;15.75;15.75;;;;;19.55;45.64;100674.16;5020709;28;45391;-66
2022/06/21 05:23:04;;;;;;;;;15.75;14.50;;;;;19.48;45.81;100670.94;5020208;28;45512;-66
2022/06/21 05:25:36;;;;;;;;;14.75;14.75;;;;;19.43;45.64;100675.63;5020076;28;45367;-66
2022/06/21 05:28:12;;;;;;;;;15.75;15.75;;;;;19.41;46.16;100670.41;5020303;28;45281;-65
2022/06/21 05:31:05;;;;;;;;;15.50;13.75;;;;;19.41;46.13;100664.22;5020474;28;45457;-66
2022/06/21 05:33:39;;;;;;;;;13.25;13.25;;;;;19.40;45.80;100660.69;5035619;28;45485;-66
2022/06/21 05:36:15;;;;;;;;;14.75;14.75;;;;;19.42;45.92;100661.47;5020200;28;46303;-65
2022/06/21 05:39:00;;;;;;;;;16.75;15.75;;;;;19.48;46.00;100669.16;5035241;28;45251;-66
2022/06/21 05:41:35;;;;;;;;;15.00;15.00;;;;;19.52;46.12;100663.63;5020244;28;45229;-66
2022/06/21 05:44:14;;;;;;;;;14.75;14.50;;;;;19.55;45.80;100658.16;5020055;28;45227;-66
2022/06/21 05:46:48;;;;;;;;;12.75;12.50;;;;;19.57;46.23;100654.47;5019831;28;46005;-65
2022/06/21 05:49:25;;;;;;;;;15.25;14.50;;;;;19.61;46.02;100658.69;5019944;28;45296;-65
2022/06/21 05:51:53;;;;;;;;;15.75;15.75;;;;;19.66;46.34;100661.13;5035553;28;45308;-65
2022/06/21 05:54:22;;;;;;;;;15.25;15.25;;;;;19.70;46.32;100668.00;5014182;28;45672;-58
2022/06/21 05:56:49;;;;;;;;;18.25;14.50;;;;;19.71;45.89;100661.72;5014945;28;48040;-56
2022/06/21 05:59:19;;;;;;;;;18.00;15.75;;;;;19.73;45.94;100650.97;5011189;28;45531;-55
2022/06/21 06:02:06;;;;;;;;;13.50;13.50;;;;;19.76;46.23;100654.34;5007515;28;45304;-56
2022/06/21 06:04:31;;;;;;;;;14.00;13.75;;;;;19.77;46.07;100658.72;5020125;28;45247;-55
2022/06/21 06:06:58;;;;;;;;;15.25;15.25;;;;;19.79;45.97;100663.97;5019649;28;45308;-55
2022/06/21 06:09:34;;;;;;;;;15.75;15.75;;;;;19.79;46.01;100656.81;5019136;28;45318;-56
2022/06/21 06:12:04;;;;;;;;;18.00;15.00;;;;;19.80;45.99;100658.53;5010600;28;45414;-56
2022/06/21 06:14:48;;;;;;;;;16.50;16.00;;;;;19.80;45.92;100652.38;5019348;28;45303;-55
2022/06/21 06:17:33;;;;;;;;;16.50;13.75;;;;;19.83;46.18;100656.72;5019178;28;46311;-56
2022/06/21 06:20:17;;;;;;;;;14.50;14.50;;;;;19.84;45.67;100663.75;5019623;28;45252;-54
2022/06/21 06:22:48;;;;;;;;;15.50;15.50;;;;;19.87;46.01;100671.59;5010760;28;45360;-55
2022/06/21 06:25:22;;;;;;;;;14.50;14.50;;;;;19.90;45.99;100680.28;5022661;28;45377;-51
2022/06/21 06:28:14;;;;;;;;;16.00;15.25;;;;;19.93;46.12;100684.59;5022943;28;46249;-53
2022/06/21 06:30:47;;;;;;;;;16.50;16.50;;;;;19.95;46.05;100690.72;5022756;28;45244;-53
2022/06/21 06:33:30;;;;;;;;;14.50;14.50;;;;;19.97;46.49;100681.69;5016998;28;45470;-54
2022/06/21 06:36:01;;;;;;;;;16.25;16.25;;;;;20.00;46.02;100672.66;5014056;28;45589;-54
2022/06/21 06:38:28;;;;;;;;;16.25;15.00;;;;;20.02;46.52;100681.41;5022517;28;45248;-56
2022/06/21 06:41:01;;;;;;;;;17.50;16.50;;;;;20.05;46.03;100686.59;5022488;28;45428;-56
2022/06/21 06:43:37;;;;;;;;;12.75;12.50;;;;;20.07;45.77;100697.16;5022864;28;45331;-55
2022/06/21 06:46:04;;;;;;;;;15.00;13.25;;;;;20.09;45.93;100698.78;5021247;28;46089;-57
2022/06/21 06:48:35;;;;;;;;;16.50;16.00;;;;;20.13;46.11;100704.81;5021408;28;47042;-56
2022/06/21 06:51:03;;;;;;;;;14.50;13.00;;;;;20.14;46.25;100696.75;5017739;28;45318;-54
2022/06/21 06:53:40;;;;;;;;;15.25;13.25;;;;;20.18;45.89;100696.59;5022502;28;45324;-56
2022/06/21 06:56:14;;;;;;;;;17.00;15.00;;;;;20.19;46.28;100701.81;5015321;28;45561;-55
2022/06/21 06:58:57;;;;;;;;;14.75;14.50;;;;;20.22;46.41;100703.47;5019873;28;46368;-56
2022/06/21 07:01:44;;;;;;;;;12.50;12.50;;;;;20.24;45.92;100698.91;5037633;28;45454;-56
2022/06/21 07:04:16;;;;;;;;;18.75;17.75;;;;;20.27;46.35;100702.25;5014286;28;45323;-57
2022/06/21 07:06:45;;;;;;;;;14.50;14.00;;;;;20.30;46.09;100711.88;5022429;28;45793;-56
2022/06/21 07:09:34;;;;;;;;;17.00;16.00;;;;;20.35;46.29;100712.53;5021927;28;46142;-57
2022/06/21 07:12:20;;;;;;;;;14.25;14.25;;;;;20.39;46.33;100715.84;5010532;28;45251;-52
2022/06/21 07:14:49;;;;;;;;;15.50;14.00;;;;;20.40;46.42;100718.47;5020752;28;45347;-51
2022/06/21 07:17:36;;;;;;;;;19.25;16.75;;;;;20.44;46.02;100724.50;5037717;28;45349;-50
2022/06/21 07:20:05;;;;;;;;;16.25;15.00;;;;;20.44;46.48;100728.00;5022272;28;45331;-52
2022/06/21 07:22:36;;;;;;;;;17.75;17.75;;;;;20.48;46.22;100728.69;5020926;28;45241;-50
2022/06/21 07:25:27;;;;;;;;;17.25;16.00;;;;;20.51;46.65;100725.84;5010064;28;45373;-50
2022/06/21 07:27:57;;;;;;;;;16.25;12.75;;;;;20.53;46.34;100731.97;5022180;28;45324;-51
2022/06/21 07:30:31;;;;;;;;;13.50;13.25;;;;;20.55;46.38;100726.53;5036583;28;47964;-48
2022/06/21 07:33:03;;;;;;;;;18.00;16.00;;;;;20.57;46.47;100738.00;5019772;28;45954;-51
2022/06/21 07:35:42;;;;;;;;;14.75;14.25;;;;;20.62;46.42;100746.59;5020882;28;45341;-52
2022/06/21 07:38:19;;;;;;;;;16.25;14.50;;;;;20.69;47.02;100750.66;5022000;28;45489;-50
2022/06/21 07:40:58;;;;;;;;;16.00;15.50;;;;;20.76;47.09;100751.19;5020512;28;47189;-52
2022/06/21 07:43:47;;;;;;;;;15.75;15.00;;;;;20.84;47.06;100750.75;5020838;28;45359;-47
2022/06/21 07:46:19;;;;;;;;;17.00;15.50;;;;;20.91;46.92;100749.47;5021825;28;45352;-50
2022/06/21 07:49:33;;;;;;;;;18.75;17.25;;;;;20.99;47.17;100752.53;5037072;28;45416;-52
2022/06/21 07:52:06;;;;;;;;;14.50;13.00;;;;;21.05;47.30;100749.50;5012585;28;45664;-50
2022/06/21 07:54:41;;;;;;;;;14.50;14.00;;;;;21.11;47.16;100749.16;5021760;28;45266;-47
2022/06/21 07:57:41;;;;;;;;;17.25;15.75;;;;;21.17;46.76;100755.97;5014486;28;45266;-50
2022/06/21 08:00:14;;;;;;;;;18.50;17.00;;;;;21.26;46.99;100754.56;5021152;28;46322;-49
2022/06/21 08:08:50;;;;;;;;;16.25;14.75;;;;;21.44;47.27;100744.59;5017733;28;45262;-47
2022/06/21 08:11:17;;;;;;;;;18.75;17.25;;;;;21.48;46.67;100730.06;5021603;28;45344;-52
2022/06/21 08:13:44;;;;;;;;;15.75;14.00;;;;;21.53;46.73;100738.66;5021421;28;45248;-51
2022/06/21 08:16:14;;;;;;;;;13.50;13.50;;;;;21.61;46.99;100730.25;5021524;28;45337;-51
2022/06/21 08:19:18;;;;;;;;;17.25;17.00;;;;;21.68;46.73;100736.91;5007167;28;45287;-50
2022/06/21 08:21:51;;;;;;;;;12.50;11.50;;;;;21.77;47.21;100746.19;4963198;28;45702;-49
2022/06/21 08:24:23;;;;;;;;;15.75;15.25;;;;;21.86;46.87;100747.44;5014215;28;46271;-50
2022/06/21 08:26:58;;;;;;;;;17.00;16.00;;;;;21.94;47.33;100742.50;5021583;28;45375;-50
2022/06/21 08:29:35;;;;;;;;;15.75;15.00;;;;;22.03;47.13;100747.25;5021466;28;45217;-52
2022/06/21 08:32:05;;;;;;;;;16.50;15.75;;;;;22.11;46.90;100751.28;5021212;28;45474;-50
2022/06/21 08:34:48;;;;;;;;;18.25;16.00;;;;;22.19;46.97;100752.50;5019508;28;46591;-51
2022/06/21 08:37:27;;;;;;;;;14.25;14.25;;;;;22.26;47.34;100762.84;5021148;28;45390;-48
2022/06/21 08:40:37;;;;;;;;;17.50;17.50;;;;;22.37;46.66;100768.41;5021164;28;45229;-49
2022/06/21 08:43:39;;;;;;;;;18.50;18.50;;;;;22.43;47.11;100767.13;5020989;28;45312;-50
2022/06/21 08:46:43;;;;;;;;;16.00;15.75;;;;;22.53;46.85;100762.94;5020760;28;46491;-51
2022/06/21 08:49:18;;;;;;;;;18.50;16.50;;;;;22.56;47.25;100762.72;5019653;28;45185;-50
2022/06/21 08:52:16;;;;;;;;;17.00;17.00;;;;;22.62;46.31;100766.84;5036370;28;45362;-47
2022/06/21 08:55:19;;;;;;;;;16.00;15.00;;;;;22.69;46.61;100765.47;4983875;28;45275;-51
2022/06/21 08:58:05;;;;;;;;;17.00;16.00;;;;;22.78;46.69;100766.69;5017766;28;45302;-50
2022/06/21 09:00:38;;;;;;;;;17.50;16.00;;;;;22.85;46.41;100765.34;5020640;28;45173;-52
2022/06/21 09:03:17;;;;;;;;;18.50;17.25;;;;;22.90;46.95;100755.16;5020965;28;45517;-50
2022/06/21 09:05:49;;;;;;;;;20.00;17.25;;;;;22.98;46.82;100763.56;5019416;28;45494;-51
2022/06/21 09:08:22;;;;;;;;;15.75;15.00;;;;;23.01;46.40;100752.63;5008316;28;47063;-51
2022/06/21 09:11:21;;;;;;;;;18.00;14.75;;;;;23.06;46.54;100746.97;5008253;28;45409;-51
2022/06/21 09:14:01;;;;;;;;;18.75;17.50;;;;;23.11;46.46;100744.00;5020800;28;45363;-53
2022/06/21 09:16:39;;;;;;;;;17.25;16.00;;;;;23.18;46.79;100745.31;5019377;28;45494;-48
2022/06/21 09:19:24;;;;;;;;;15.00;14.00;;;;;23.23;46.56;100728.94;5020452;28;46379;-52
2022/06/21 09:21:57;;;;;;;;;16.00;15.00;;;;;23.31;46.23;100742.69;5020458;28;45170;-50
2022/06/21 09:24:40;;;;;;;;;15.00;15.00;;;;;23.39;46.45;100742.16;5020429;28;45323;-52
2022/06/21 09:27:27;;;;;;;;;15.75;15.25;;;;;23.43;46.48;100738.31;5020462;28;45384;-50
2022/06/21 09:30:02;;;;;;;;;17.50;16.25;;;;;23.47;46.23;100734.44;5020146;28;46566;-50
2022/06/21 09:32:41;;;;;;;;;14.00;14.00;;;;;23.50;45.97;100732.41;5020173;28;45310;-52
2022/06/21 09:35:36;;;;;;;;;19.50;18.00;;;;;23.53;46.19;100731.34;5008887;28;45498;-50
2022/06/21 09:38:11;;;;;;;;;17.75;15.00;;;;;23.47;46.13;100723.72;5020068;28;45458;-51
2022/06/21 09:40:58;;;;;;;;;16.25;14.25;;;;;23.55;46.05;100734.78;5020087;28;45996;-50
2022/06/21 09:43:44;;;;;;;;;12.50;12.50;;;;;23.52;45.72;100733.16;5020396;28;45268;-52
2022/06/21 09:46:18;;;;;;;;;17.75;14.50;;;;;23.53;45.98;100734.00;5012699;28;45264;-53
2022/06/21 09:49:03;;;;;;;;;13.75;12.50;;;;;23.52;46.08;100724.25;5020067;28;45334;-52
2022/06/21 09:51:53;;;;;;;;;15.75;15.75;;;;;23.52;46.08;100725.13;5019854;28;45431;-51
2022/06/21 09:54:38;;;;;;;;;14.25;14.25;;;;;23.54;46.18;100725.00;5019849;28;45314;-50
2022/06/21 09:57:25;;;;;;;;;15.75;14.00;;;;;23.55;45.81;100718.69;5019466;28;45165;-52
2022/06/21 10:00:05;;;;;;;;;16.50;15.50;;;;;23.58;45.87;100717.63;5020090;28;45438;-52
2022/06/21 10:02:54;;;;;;;;;14.00;13.00;;;;;23.60;46.04;100711.19;5019489;28;46049;-51
2022/06/21 10:05:22;;;;;;;;;15.25;15.25;;;;;23.63;46.31;100708.28;5035094;28;45390;-50
2022/06/21 10:08:03;;;;;;;;;15.75;14.00;;;;;23.65;45.97;100703.66;5011448;28;45378;-52
2022/06/21 10:10:56;;;;;;;;;14.25;12.75;;;;;23.69;45.92;100705.16;5018342;28;45251;-52
2022/06/21 10:13:40;;;;;;;;;10.00;10.00;;;;;23.75;46.16;100700.31;5019780;28;45664;-52
2022/06/21 10:16:27;;;;;;;;;14.00;13.00;;;;;23.80;45.97;100687.47;5019619;28;45325;-52
2022/06/21 10:19:15;;;;;;;;;13.75;13.25;;;;;23.82;45.99;100694.44;5020045;28;45422;-50
2022/06/21 10:21:59;;;;;;;;;11.50;11.25;;;;;23.89;45.50;100692.19;5019546;28;45240;-52
2022/06/21 10:24:35;;;;;;;;;13.25;12.50;;;;;23.93;45.84;100684.81;5019373;28;45301;-49
2022/06/21 10:27:36;;;;;;;;;12.00;11.25;;;;;24.01;45.88;100685.97;5018802;28;45496;-51
2022/06/21 10:30:30;;;;;;;;;12.75;11.50;;;;;24.09;45.80;100674.69;5019866;28;45411;-48
2022/06/21 10:33:05;;;;;;;;;14.50;11.00;;;;;24.20;45.87;100684.66;5017904;28;45384;-47
2022/06/21 10:35:49;;;;;;;;;11.75;11.75;;;;;24.31;45.97;100670.41;5019474;28;45325;-50
2022/06/21 10:38:27;;;;;;;;;16.75;15.50;;;;;24.42;45.82;100669.63;5034799;28;45483;-52
2022/06/21 10:41:11;;;;;;;;;12.00;12.00;;;;;24.55;45.92;100665.06;5019476;28;45232;-49
2022/06/21 10:44:11;;;;;;;;;12.00;12.00;;;;;24.71;45.80;100663.97;5019531;28;45534;-50
2022/06/21 10:46:44;;;;;;;;;10.00;8.75;;;;;24.90;45.85;100666.09;4994942;28;47296;-48
2022/06/21 10:49:24;;;;;;;;;12.50;8.50;;;;;25.13;45.92;100665.22;5019314;28;45264;-52
2022/06/21 10:52:05;;;;;;;;;15.75;15.50;;;;;25.55;46.55;100662.00;5019507;28;45332;-50
2022/06/21 10:54:50;;;;;;;;;13.75;13.50;;;;;26.09;47.48;100656.91;5034463;28;45297;-51
2022/06/21 10:57:21;;;;;;;;;12.75;12.75;;;;;26.66;47.29;100651.34;5019188;28;45232;-50
2022/06/21 11:02:56;;;;;;;;;14.75;13.50;;;;;28.14;48.07;100648.53;4965182;28;45420;-52
2022/06/21 11:06:04;;;;;;;;;13.50;13.50;;;;;29.03;48.41;100642.22;5019174;28;45285;-51
2022/06/21 11:08:32;;;;;;;;;14.25;13.75;;;;;29.84;47.84;100641.69;5023323;28;46353;-52
2022/06/21 11:11:17;;;;;;;;;15.00;15.00;;;;;30.63;48.00;100638.56;5022616;28;45236;-51
2022/06/21 11:14:11;;;;;;;;;15.50;14.25;;;;;31.53;47.75;100649.22;5022548;28;45357;-52
2022/06/21 11:16:57;;;;;;;;;15.00;15.00;;;;;32.44;47.38;100644.19;5022364;28;45252;-49
2022/06/21 11:19:34;;;;;;;;;16.50;15.25;;;;;33.24;46.97;100641.81;5022456;28;45307;-52
2022/06/21 11:22:03;;;;;;;;;17.75;16.00;;;;;34.04;46.66;100646.34;5022349;28;45229;-52
2022/06/21 11:24:37;;;;;;;;;19.50;19.25;;;;;34.81;46.62;100636.47;5020942;28;45401;-51
2022/06/21 11:27:32;;;;;;;;;13.50;11.75;;;;;35.59;46.32;100645.28;5022411;28;45398;-50
2022/06/21 11:30:24;;;;;;;;;13.00;11.75;;;;;36.40;45.38;100641.69;5002645;28;45301;-51
2022/06/21 11:33:05;;;;;;;;;11.50;11.25;;;;;37.03;44.79;100631.94;5021960;28;46307;-53
2022/06/21 11:35:49;;;;;;;;;11.00;11.00;;;;;37.59;43.95;100642.03;5021258;28;45349;-51
2022/06/21 11:38:39;;;;;;;;;11.50;11.00;;;;;38.05;42.52;100644.16;5021893;28;45425;-52
2022/06/21 11:41:04;;;;;;;;;10.00;10.00;;;;;38.26;41.24;100638.72;5021827;28;46078;-50
2022/06/21 11:43:50;;;;;;;;;9.75;9.75;;;;;38.25;39.81;100639.75;5022200;28;45163;-51
2022/06/21 11:46:37;;;;;;;;;11.50;11.50;;;;;38.09;39.01;100636.34;5021960;28;45244;-53
2022/06/21 11:49:23;;;;;;;;;13.25;12.25;;;;;37.82;38.49;100635.41;5021966;28;45269;-51
2022/06/21 11:52:06;;;;;;;;;9.75;9.75;;;;;37.48;37.68;100635.22;5014216;28;45480;-49
2022/06/21 11:54:53;;;;;;;;;13.25;11.25;;;;;37.10;36.82;100640.22;5021805;28;45427;-52
2022/06/21 11:57:42;;;;;;;;;9.25;9.25;;;;;36.76;36.23;100651.69;5020799;28;45321;-52
2022/06/21 12:00:46;;;;;;;;;10.50;10.50;;;;;36.29;36.03;100642.19;5012480;28;45315;-51
2022/06/21 12:03:20;;;;;;;;;11.00;11.00;;;;;35.91;36.19;100642.34;4987660;28;47343;-50
2022/06/21 12:05:48;;;;;;;;;11.00;11.00;;;;;35.57;35.72;100633.72;5020231;28;45516;-54
2022/06/21 12:08:22;;;;;;;;;9.75;9.50;;;;;35.21;35.63;100631.69;5009582;28;45370;-52
2022/06/21 12:11:00;;;;;;;;;11.75;11.75;;;;;34.85;35.67;100618.69;5009436;28;45165;-51